createdAt,value
2023-05-20T00:00:11.742Z,1.42
2023-05-20T00:02:39.651Z,1.40
2023-05-20T00:05:08.613Z,1.90
2023-05-20T00:07:36.648Z,1.80
2023-05-20T00:10:04.280Z,1.58
2023-05-20T00:12:33.325Z,1.70
2023-05-20T00:15:01.178Z,1.60
2023-05-20T00:17:28.828Z,1.70
2023-05-20T00:19:56.477Z,1.60
2023-05-20T00:22:24.116Z,1.80
2023-05-20T00:24:51.805Z,1.63
2023-05-20T00:27:19.410Z,1.80
2023-05-20T00:29:48.441Z,1.90
2023-05-20T00:32:16.265Z,1.42
2023-05-20T00:34:59.574Z,1.80
2023-05-20T00:37:27.484Z,1.60
2023-05-20T00:39:55.354Z,1.53
2023-05-20T00:42:23.143Z,2.10
2023-05-20T00:44:52.301Z,1.60
2023-05-20T00:47:21.577Z,1.77
2023-05-20T00:49:51.382Z,1.85
2023-05-20T00:52:19.512Z,1.90
2023-05-20T00:54:47.344Z,1.52
2023-05-20T00:57:15.361Z,1.90
2023-05-20T00:59:44.781Z,1.85
2023-05-20T01:02:14.037Z,1.70
2023-05-20T01:04:46.493Z,1.50
2023-05-20T01:07:14.887Z,1.90
2023-05-20T01:09:42.544Z,2.13
2023-05-20T01:12:13.766Z,1.70
2023-05-20T01:14:45.599Z,1.52
2023-05-20T01:17:17.976Z,2.00
2023-05-20T01:19:46.522Z,1.98
2023-05-20T01:22:15.321Z,1.70
2023-05-20T01:24:48.232Z,1.60
2023-05-20T01:27:15.897Z,1.60
2023-05-20T01:29:45.950Z,1.92
2023-05-20T01:32:17.139Z,1.95
2023-05-20T01:34:45.293Z,2.00
2023-05-20T01:37:13.981Z,1.92
2023-05-20T01:39:43.894Z,1.80
2023-05-20T01:42:11.940Z,2.00
2023-05-20T01:44:39.659Z,1.80
2023-05-20T01:47:07.373Z,2.33
2023-05-20T01:49:35.044Z,2.10
2023-05-20T01:52:08.899Z,2.00
2023-05-20T01:54:36.859Z,1.90
2023-05-20T01:57:06.205Z,2.22
2023-05-20T01:59:33.954Z,1.63
2023-05-20T02:02:01.696Z,2.08
2023-05-20T02:04:29.376Z,2.25
2023-05-20T02:06:57.000Z,1.63
2023-05-20T02:09:24.602Z,2.00
2023-05-20T02:11:52.316Z,1.73
2023-05-20T02:14:21.303Z,2.05
2023-05-20T02:16:49.088Z,2.27
2023-05-20T02:19:23.792Z,1.92
2023-05-20T02:21:52.491Z,2.00
2023-05-20T02:24:21.236Z,2.17
2023-05-20T02:26:51.119Z,2.50
2023-05-20T02:29:19.703Z,2.13
2023-05-20T02:31:49.004Z,2.13
2023-05-20T02:34:16.848Z,2.00
2023-05-20T02:36:44.519Z,2.28
2023-05-20T02:39:12.546Z,2.10
2023-05-20T02:41:40.190Z,2.22
2023-05-20T02:44:07.839Z,2.20
2023-05-20T02:46:35.786Z,2.17
2023-05-20T02:49:05.060Z,2.53
2023-05-20T02:51:33.423Z,2.57
2023-05-20T02:54:01.056Z,1.98
2023-05-20T02:56:28.758Z,1.73
2023-05-20T02:58:56.401Z,1.90
2023-05-20T03:01:24.378Z,2.22
2023-05-20T03:03:52.466Z,2.10
2023-05-20T03:06:21.521Z,2.47
2023-05-20T03:08:49.125Z,2.10
2023-05-20T03:11:16.743Z,1.92
2023-05-20T03:13:44.389Z,2.07
2023-05-20T03:16:13.209Z,2.10
2023-05-20T03:18:41.926Z,2.10
2023-05-20T03:21:09.765Z,2.03
2023-05-20T03:23:38.780Z,2.40
2023-05-20T03:26:07.027Z,2.57
2023-05-20T03:28:34.726Z,2.38
2023-05-20T03:31:02.812Z,2.38
2023-05-20T03:33:31.519Z,2.42
2023-05-20T03:35:59.148Z,2.20
2023-05-20T03:38:26.861Z,2.20
2023-05-20T03:40:55.946Z,2.57
2023-05-20T03:43:23.574Z,2.50
2023-05-20T03:45:51.168Z,2.30
2023-05-20T03:48:18.775Z,2.58
2023-05-20T03:51:19.450Z,2.45
2023-05-20T03:53:47.209Z,2.50
2023-05-20T03:56:16.265Z,2.58
2023-05-20T03:58:44.253Z,2.50
2023-05-20T04:01:14.265Z,2.17
2023-05-20T04:03:42.655Z,2.63
2023-05-20T04:06:10.383Z,2.70
2023-05-20T04:08:38.077Z,2.63
2023-05-20T04:11:06.139Z,2.45
2023-05-20T04:13:35.148Z,2.65
2023-05-20T04:16:05.390Z,2.67
2023-05-20T04:18:33.312Z,2.65
2023-05-20T04:21:01.566Z,2.58
2023-05-20T04:23:29.229Z,2.53
2023-05-20T04:26:02.217Z,2.75
2023-05-20T04:28:31.300Z,2.50
2023-05-20T04:31:04.446Z,2.55
2023-05-20T04:33:32.899Z,2.45
2023-05-20T04:36:01.635Z,2.33
2023-05-20T04:38:30.435Z,2.25
2023-05-20T04:40:58.935Z,2.50
2023-05-20T04:43:29.935Z,2.30
2023-05-20T04:45:58.052Z,2.67
2023-05-20T04:48:27.129Z,2.47
2023-05-20T04:50:55.552Z,2.03
2023-05-20T04:53:23.333Z,2.13
2023-05-20T04:55:53.914Z,2.10
2023-05-20T04:58:24.332Z,2.30
2023-05-20T05:00:52.904Z,1.90
2023-05-20T05:03:20.626Z,2.10
2023-05-20T05:05:49.673Z,2.50
2023-05-20T05:08:17.851Z,2.10
2023-05-20T05:10:46.310Z,2.03
2023-05-20T05:13:14.046Z,2.22
2023-05-20T05:15:41.921Z,1.80
2023-05-20T05:18:09.742Z,1.87
2023-05-20T05:20:37.774Z,1.52
2023-05-20T05:23:07.177Z,1.98
2023-05-20T05:25:34.934Z,1.98
2023-05-20T05:28:02.727Z,2.00
2023-05-20T05:30:30.324Z,1.83
2023-05-20T05:32:58.154Z,1.53
2023-05-20T05:35:25.995Z,2.00
2023-05-20T05:37:53.581Z,1.60
2023-05-20T05:40:22.766Z,1.95
2023-05-20T05:42:50.481Z,1.88
2023-05-20T05:45:18.246Z,1.93
2023-05-20T05:47:46.010Z,2.17
2023-05-20T05:50:13.753Z,2.30
2023-05-20T05:52:41.615Z,2.03
2023-05-20T05:55:10.234Z,1.90
2023-05-20T05:57:39.285Z,1.98
2023-05-20T06:00:08.187Z,1.80
2023-05-20T06:02:36.350Z,2.23
2023-05-20T06:05:04.442Z,2.10
2023-05-20T06:07:32.224Z,2.08
2023-05-20T06:09:59.836Z,2.00
2023-05-20T06:12:27.498Z,1.80
2023-05-20T06:14:56.534Z,1.75
2023-05-20T06:17:24.149Z,1.67
2023-05-20T06:19:51.816Z,1.85
2023-05-20T06:22:19.453Z,1.80
2023-05-20T06:24:47.078Z,2.00
2023-05-20T06:27:14.698Z,1.85
2023-05-20T06:29:43.754Z,1.63
2023-05-20T06:32:13.101Z,1.60
2023-05-20T06:34:41.057Z,2.00
2023-05-20T06:37:08.682Z,1.80
2023-05-20T06:39:36.359Z,1.70
2023-05-20T06:42:04.502Z,2.47
2023-05-20T06:44:32.478Z,1.90
2023-05-20T06:47:00.117Z,1.67
2023-05-20T06:49:29.321Z,1.98
2023-05-20T06:51:56.981Z,1.80
2023-05-20T06:54:24.607Z,2.05
2023-05-20T06:56:54.229Z,1.80
2023-05-20T06:59:21.947Z,2.00
2023-05-20T07:01:49.638Z,1.93
2023-05-20T07:04:17.500Z,1.80
2023-05-20T07:06:46.684Z,1.92
2023-05-20T07:09:14.407Z,1.87
2023-05-20T07:11:42.075Z,1.90
2023-05-20T07:14:10.224Z,1.80
2023-05-20T07:16:38.139Z,1.70
2023-05-20T07:19:06.022Z,1.75
2023-05-20T07:21:33.702Z,1.90
2023-05-20T07:24:02.812Z,1.80
2023-05-20T07:26:33.557Z,2.00
2023-05-20T07:29:01.968Z,1.75
2023-05-20T07:31:29.711Z,1.90
2023-05-20T07:33:57.511Z,1.73
2023-05-20T07:36:25.238Z,1.88
2023-05-20T07:39:03.210Z,1.60
2023-05-20T07:41:33.378Z,1.93
2023-05-20T07:44:04.140Z,2.05
2023-05-20T07:46:31.919Z,1.60
2023-05-20T07:49:13.832Z,1.60
2023-05-20T07:51:41.551Z,1.70
2023-05-20T07:54:09.391Z,1.38
2023-05-20T07:56:38.454Z,1.77
2023-05-20T07:59:06.136Z,1.58
2023-05-20T08:01:34.689Z,1.50
2023-05-20T08:04:02.443Z,1.75
2023-05-20T08:06:30.246Z,1.50
2023-05-20T08:08:57.926Z,1.83
2023-05-20T08:11:25.674Z,1.70
2023-05-20T08:13:55.309Z,1.60
2023-05-20T08:16:23.301Z,1.47
2023-05-20T08:18:51.352Z,1.65
2023-05-20T08:21:19.158Z,1.80
2023-05-20T08:23:46.791Z,1.85
2023-05-20T08:26:14.509Z,1.85
2023-05-20T08:28:42.330Z,1.65
2023-05-20T08:31:11.508Z,1.60
2023-05-20T08:33:39.180Z,1.65
2023-05-20T08:36:08.309Z,1.77
2023-05-20T08:38:36.558Z,1.60
2023-05-20T08:41:16.809Z,1.73
2023-05-20T08:43:45.071Z,1.42
2023-05-20T08:46:16.174Z,1.58
2023-05-20T08:48:45.337Z,1.80
2023-05-20T08:51:13.226Z,1.80
2023-05-20T08:53:41.255Z,1.48
2023-05-20T08:56:09.467Z,1.40
2023-05-20T08:58:37.537Z,1.60
2023-05-20T09:01:05.309Z,2.10
2023-05-20T09:03:34.511Z,1.70
2023-05-20T09:06:05.899Z,1.90
2023-05-20T09:08:34.380Z,2.08
2023-05-20T09:11:02.519Z,1.90
2023-05-20T09:13:32.432Z,1.87
2023-05-20T09:16:01.068Z,1.52
2023-05-20T09:18:29.258Z,1.70
2023-05-20T09:20:58.546Z,1.67
2023-05-20T09:23:27.705Z,1.60
2023-05-20T09:25:55.556Z,1.60
2023-05-20T09:28:25.531Z,1.70
2023-05-20T09:30:59.021Z,1.70
2023-05-20T09:33:29.877Z,1.80
2023-05-20T09:36:04.476Z,1.42
2023-05-20T09:38:37.925Z,1.65
2023-05-20T09:41:09.166Z,1.57
2023-05-20T09:43:37.414Z,1.50
2023-05-20T09:46:06.016Z,1.33
2023-05-20T09:48:34.475Z,1.35
2023-05-20T09:51:05.178Z,1.50
2023-05-20T09:53:32.810Z,1.50
2023-05-20T09:56:00.588Z,1.50
2023-05-20T09:58:28.497Z,1.30
2023-05-20T10:00:56.265Z,1.60
2023-05-20T10:03:25.272Z,1.33
2023-05-20T10:06:05.376Z,1.40
2023-05-20T10:08:44.225Z,1.67
2023-05-20T10:11:33.214Z,1.08
2023-05-20T10:14:13.263Z,1.30
2023-05-20T10:16:45.802Z,1.40
2023-05-20T10:19:21.528Z,1.35
2023-05-20T10:21:58.241Z,1.33
2023-05-20T10:24:33.249Z,1.40
2023-05-20T10:27:03.345Z,1.92
2023-05-20T10:29:31.325Z,1.40
2023-05-20T10:32:08.335Z,1.05
2023-05-20T10:34:46.414Z,1.02
2023-05-20T10:37:24.441Z,1.10
2023-05-20T10:39:53.584Z,1.10
2023-05-20T10:42:29.451Z,1.20
2023-05-20T10:44:57.303Z,1.20
2023-05-20T10:47:26.473Z,1.23
2023-05-20T10:49:54.479Z,1.30
2023-05-20T10:52:22.344Z,1.20
2023-05-20T10:54:59.191Z,1.10
2023-05-20T10:57:27.918Z,1.20
2023-05-20T10:59:56.371Z,1.13
2023-05-20T11:02:27.081Z,1.50
2023-05-20T11:04:55.114Z,1.40
2023-05-20T11:07:27.632Z,1.10
2023-05-20T11:09:55.357Z,1.40
2023-05-20T11:12:25.368Z,1.57
2023-05-20T11:14:53.542Z,1.42
2023-05-20T11:17:21.666Z,1.30
2023-05-20T11:19:49.612Z,1.30
2023-05-20T11:22:17.412Z,1.48
2023-05-20T11:24:45.095Z,1.40
2023-05-20T11:27:12.755Z,1.33
2023-05-20T11:29:42.215Z,1.30
2023-05-20T11:32:10.021Z,1.20
2023-05-20T11:34:38.728Z,1.40
2023-05-20T11:37:08.650Z,1.35
2023-05-20T11:39:36.536Z,1.23
2023-05-20T11:42:05.947Z,1.40
2023-05-20T11:44:33.919Z,1.30
2023-05-20T11:47:19.287Z,1.42
2023-05-20T11:49:50.235Z,1.38
2023-05-20T11:52:18.080Z,1.30
2023-05-20T11:54:45.903Z,1.33
2023-05-20T11:57:13.704Z,1.40
2023-05-20T11:59:41.412Z,1.37
2023-05-20T12:02:09.136Z,1.30
2023-05-20T12:04:38.268Z,1.15
2023-05-20T12:07:09.313Z,1.10
2023-05-20T12:09:36.990Z,1.30
2023-05-20T12:12:05.051Z,1.45
2023-05-20T12:14:32.838Z,1.40
2023-05-20T12:17:00.645Z,1.20
2023-05-20T12:19:28.445Z,1.33
2023-05-20T12:21:57.583Z,1.20
2023-05-20T12:24:25.245Z,1.20
2023-05-20T12:26:52.963Z,1.20
2023-05-20T12:29:21.019Z,1.67
2023-05-20T12:31:48.855Z,0.90
2023-05-20T12:34:16.536Z,0.80
2023-05-20T12:36:44.318Z,0.98
2023-05-20T12:39:13.851Z,0.87
2023-05-20T12:41:42.379Z,0.90
2023-05-20T12:44:10.194Z,1.20
2023-05-20T12:46:38.235Z,1.00
2023-05-20T12:49:06.022Z,1.20
2023-05-20T12:51:33.736Z,1.05
2023-05-20T12:54:01.382Z,1.02
2023-05-20T12:56:30.724Z,1.27
2023-05-20T12:59:16.688Z,1.10
2023-05-20T13:01:44.362Z,1.10
2023-05-20T13:04:12.013Z,1.17
2023-05-20T13:06:39.689Z,1.05
2023-05-20T13:09:07.890Z,1.38
2023-05-20T13:11:37.028Z,1.40
2023-05-20T13:14:04.676Z,1.10
2023-05-20T13:16:32.521Z,1.10
2023-05-20T13:19:00.267Z,1.27
2023-05-20T13:21:28.063Z,1.17
2023-05-20T13:23:55.726Z,0.88
2023-05-20T13:26:23.697Z,1.10
2023-05-20T13:28:52.862Z,1.00
2023-05-20T13:31:20.594Z,1.33
2023-05-20T13:33:48.316Z,0.80
2023-05-20T13:36:15.999Z,0.90
2023-05-20T13:38:43.652Z,1.15
2023-05-20T13:41:11.396Z,0.95
2023-05-20T13:43:42.106Z,0.80
2023-05-20T13:46:11.429Z,0.93
2023-05-20T13:48:39.131Z,0.93
2023-05-20T13:51:07.053Z,1.00
2023-05-20T13:53:34.721Z,1.10
2023-05-20T13:56:02.460Z,1.10
2023-05-20T13:58:30.052Z,1.00
2023-05-20T14:00:57.876Z,1.00
2023-05-20T14:03:27.090Z,0.90
2023-05-20T14:05:54.745Z,1.02
2023-05-20T14:08:22.424Z,0.83
2023-05-20T14:10:54.634Z,0.80
2023-05-20T14:13:22.469Z,0.90
2023-05-20T14:15:50.662Z,0.88
2023-05-20T14:18:18.408Z,0.90
2023-05-20T14:20:47.473Z,1.00
2023-05-20T14:23:15.521Z,1.00
2023-05-20T14:25:43.249Z,1.00
2023-05-20T14:28:11.244Z,1.00
2023-05-20T14:31:16.021Z,0.90
2023-05-20T14:33:43.689Z,0.90
2023-05-20T14:36:12.820Z,0.93
2023-05-20T14:38:40.518Z,1.02
2023-05-20T14:41:08.131Z,0.90
2023-05-20T14:43:36.690Z,1.00
2023-05-20T14:46:04.959Z,0.90
2023-05-20T14:48:32.602Z,1.00
2023-05-20T14:51:00.204Z,1.00
2023-05-20T14:53:29.344Z,1.13
2023-05-20T14:55:57.014Z,1.00
2023-05-20T14:58:24.633Z,1.00
2023-05-20T15:00:53.815Z,0.90
2023-05-20T15:03:23.404Z,0.87
2023-05-20T15:05:51.281Z,0.93
2023-05-20T15:08:19.175Z,0.63
2023-05-20T15:10:48.448Z,1.10
2023-05-20T15:13:16.154Z,0.80
2023-05-20T15:15:43.776Z,0.93
2023-05-20T15:18:11.713Z,0.93
2023-05-20T15:20:39.538Z,0.90
2023-05-20T15:23:07.347Z,0.80
2023-05-20T15:25:35.350Z,0.93
2023-05-20T15:28:04.687Z,0.90
2023-05-20T15:30:32.345Z,0.88
2023-05-20T15:33:00.169Z,1.00
2023-05-20T15:35:27.884Z,0.80
2023-05-20T15:37:55.595Z,1.08
2023-05-20T15:40:23.429Z,0.90
2023-05-20T15:42:51.497Z,1.20
2023-05-20T15:45:20.644Z,1.00
2023-05-20T15:47:48.312Z,1.00
2023-05-20T15:50:16.246Z,1.40
2023-05-20T15:52:43.931Z,1.20
2023-05-20T15:55:11.941Z,1.10
2023-05-20T15:57:39.565Z,1.13
2023-05-20T16:00:10.501Z,1.30
2023-05-20T16:02:40.302Z,1.30
2023-05-20T16:05:08.753Z,1.48
2023-05-20T16:07:36.570Z,1.20
2023-05-20T16:10:05.017Z,1.45
2023-05-20T16:12:32.664Z,1.27
2023-05-20T16:15:00.433Z,1.30
2023-05-20T16:17:28.168Z,1.30
2023-05-20T16:19:57.209Z,1.60
2023-05-20T16:22:24.829Z,1.52
2023-05-20T16:24:52.455Z,1.30
2023-05-20T16:27:20.138Z,1.37
2023-05-20T16:29:47.746Z,1.63
2023-05-20T16:32:15.461Z,1.60
2023-05-20T16:34:43.078Z,1.58
2023-05-20T16:37:12.850Z,1.80
2023-05-20T16:39:40.481Z,1.75
2023-05-20T16:42:09.272Z,1.40
2023-05-20T16:44:39.019Z,1.60
2023-05-20T16:47:06.931Z,1.50
2023-05-20T16:49:34.700Z,1.60
2023-05-20T16:52:02.435Z,1.60
2023-05-20T16:54:32.630Z,1.73
2023-05-20T16:57:00.716Z,1.73
2023-05-20T16:59:30.285Z,1.80
2023-05-20T17:01:58.228Z,1.65
2023-05-20T17:04:25.950Z,1.60
2023-05-20T17:06:53.620Z,1.70
2023-05-20T17:09:21.370Z,1.70
2023-05-20T17:11:50.982Z,1.63
2023-05-20T17:14:18.680Z,1.90
2023-05-20T17:16:46.396Z,1.92
2023-05-20T17:19:14.334Z,2.00
2023-05-20T17:21:41.991Z,2.30
2023-05-20T17:24:09.653Z,2.40
2023-05-20T17:26:37.486Z,2.20
2023-05-20T17:29:06.581Z,1.90
2023-05-20T17:31:34.290Z,2.35
2023-05-20T17:34:02.076Z,2.60
2023-05-20T17:36:29.930Z,2.50
2023-05-20T17:38:57.536Z,2.40
2023-05-20T17:41:25.161Z,2.25
2023-05-20T17:43:52.834Z,2.07
2023-05-20T17:46:21.920Z,2.40
2023-05-20T17:48:49.562Z,2.17
2023-05-20T17:51:17.225Z,2.25
2023-05-20T17:53:44.885Z,2.53
2023-05-20T17:56:12.549Z,2.40
2023-05-20T17:58:40.206Z,2.47
2023-05-20T18:01:17.485Z,3.00
2023-05-20T18:03:46.637Z,2.47
2023-05-20T18:06:14.560Z,2.65
2023-05-20T18:08:42.479Z,2.75
2023-05-20T18:11:10.279Z,2.70
2023-05-20T18:13:37.899Z,3.60
2023-05-20T18:16:06.602Z,2.75
2023-05-20T18:18:34.446Z,2.85
2023-05-20T18:21:06.904Z,2.83
2023-05-20T18:23:34.628Z,3.17
2023-05-20T18:26:06.703Z,3.30
2023-05-20T18:28:34.526Z,3.28
2023-05-20T18:31:02.254Z,3.13
2023-05-20T18:33:29.898Z,3.00
2023-05-20T18:35:57.486Z,3.47
2023-05-20T18:38:27.346Z,3.05
2023-05-20T18:40:54.975Z,3.22
2023-05-20T18:43:22.656Z,2.78
2023-05-20T18:45:50.436Z,4.00
2023-05-20T18:48:26.271Z,3.63
2023-05-20T18:50:54.601Z,3.13
2023-05-20T18:53:22.286Z,3.80
2023-05-20T18:55:51.461Z,3.67
2023-05-20T18:58:19.110Z,3.40
2023-05-20T19:00:46.795Z,3.45
2023-05-20T19:03:14.418Z,3.40
2023-05-20T19:05:42.083Z,4.07
2023-05-20T19:08:09.729Z,3.55
2023-05-20T19:10:37.429Z,3.60
2023-05-20T19:13:06.537Z,3.40
2023-05-20T19:15:34.740Z,3.50
2023-05-20T19:18:02.527Z,3.13
2023-05-20T19:20:30.285Z,3.45
2023-05-20T19:22:58.005Z,3.30
2023-05-20T19:25:25.661Z,3.60
2023-05-20T19:27:53.346Z,3.40
2023-05-20T19:30:22.438Z,3.22
2023-05-20T19:32:50.187Z,3.67
2023-05-20T19:35:18.212Z,3.60
2023-05-20T19:37:45.977Z,3.72
2023-05-20T19:40:14.695Z,3.78
2023-05-20T19:42:42.431Z,3.25
2023-05-20T19:45:11.136Z,3.63
2023-05-20T19:47:40.256Z,3.63
2023-05-20T19:50:08.554Z,3.30
2023-05-20T19:52:36.290Z,3.47
2023-05-20T19:55:04.217Z,3.33
2023-05-20T19:57:32.016Z,3.37
2023-05-20T19:59:59.854Z,3.65
2023-05-20T20:02:27.607Z,3.70
2023-05-20T20:04:56.709Z,3.60
2023-05-20T20:07:24.447Z,3.63
2023-05-20T20:09:55.197Z,3.35
2023-05-20T20:12:23.609Z,3.53
2023-05-20T20:14:51.955Z,3.38
2023-05-20T20:17:21.369Z,3.33
2023-05-20T20:19:53.036Z,3.60
2023-05-20T20:22:22.422Z,3.42
2023-05-20T20:24:50.623Z,3.80
2023-05-20T20:27:19.243Z,3.83
2023-05-20T20:29:46.959Z,3.65
2023-05-20T20:32:14.717Z,3.58
2023-05-20T20:34:43.005Z,3.58
2023-05-20T20:37:14.597Z,3.38
2023-05-20T20:39:45.333Z,3.60
2023-05-20T20:42:13.040Z,3.97
2023-05-20T20:44:42.588Z,3.85
2023-05-20T20:47:10.461Z,3.22
2023-05-20T20:49:38.279Z,3.28
2023-05-20T20:52:06.607Z,3.65
2023-05-20T20:54:34.370Z,3.47
2023-05-20T20:57:04.050Z,3.50
2023-05-20T20:59:31.902Z,3.50
2023-05-20T21:01:59.657Z,3.42
2023-05-20T21:04:27.931Z,3.33
2023-05-20T21:06:55.745Z,3.20
2023-05-20T21:09:23.777Z,3.13
2023-05-20T21:11:51.523Z,3.67
2023-05-20T21:14:20.600Z,3.33
2023-05-20T21:16:48.272Z,3.33
2023-05-20T21:19:16.070Z,3.40
2023-05-20T21:21:43.802Z,3.22
2023-05-20T21:24:11.479Z,3.30
2023-05-20T21:26:39.279Z,3.07
2023-05-20T21:29:07.449Z,3.42
2023-05-20T21:31:36.675Z,4.00
2023-05-20T21:34:04.558Z,3.38
2023-05-20T21:36:32.417Z,3.33
2023-05-20T21:39:00.094Z,3.40
2023-05-20T21:41:27.841Z,3.08
2023-05-20T21:43:55.546Z,2.92
2023-05-20T21:46:23.485Z,3.80
2023-05-20T21:48:52.688Z,2.90
2023-05-20T21:51:20.385Z,3.22
2023-05-20T21:53:48.046Z,3.42
2023-05-20T21:56:15.842Z,3.03
2023-05-20T21:58:43.523Z,3.75
2023-05-20T22:01:11.258Z,3.55
2023-05-20T22:03:39.850Z,3.28
2023-05-20T22:06:09.194Z,2.90
2023-05-20T22:08:36.861Z,3.13
2023-05-20T22:11:07.363Z,3.20
2023-05-20T22:13:36.307Z,3.33
2023-05-20T22:16:04.932Z,3.47
2023-05-20T22:18:32.889Z,3.53
2023-05-20T22:21:01.079Z,3.33
2023-05-20T22:23:30.135Z,3.08
2023-05-20T22:25:57.952Z,3.50
2023-05-20T22:28:26.245Z,3.20
2023-05-20T22:30:54.831Z,3.60
2023-05-20T22:33:24.369Z,3.15
2023-05-20T22:35:53.514Z,3.13
2023-05-20T22:38:22.015Z,3.40
2023-05-20T22:40:51.095Z,3.28
2023-05-20T22:43:18.746Z,3.38
2023-05-20T22:45:46.463Z,3.08
2023-05-20T22:48:14.288Z,3.28
2023-05-20T22:50:42.287Z,3.17
2023-05-20T22:53:10.600Z,3.40
2023-05-20T22:55:38.781Z,3.05
2023-05-20T22:58:08.657Z,3.03
2023-05-20T23:00:37.169Z,3.15
2023-05-20T23:03:04.981Z,3.40
2023-05-20T23:05:33.014Z,3.20
2023-05-20T23:08:00.836Z,3.50
2023-05-20T23:10:28.544Z,3.63
2023-05-20T23:12:56.220Z,3.30
2023-05-20T23:15:25.648Z,2.95
2023-05-20T23:17:53.392Z,3.78
2023-05-20T23:20:22.243Z,2.92
2023-05-20T23:22:49.957Z,3.22
2023-05-20T23:25:18.056Z,3.00
2023-05-20T23:27:45.756Z,2.80
2023-05-20T23:30:13.720Z,3.17
2023-05-20T23:32:43.525Z,2.88
2023-05-20T23:35:13.218Z,3.10
2023-05-20T23:37:41.086Z,3.30
2023-05-20T23:40:10.210Z,3.00
2023-05-20T23:42:37.866Z,3.55
2023-05-20T23:45:06.202Z,3.30
2023-05-20T23:47:34.281Z,3.72
2023-05-20T23:50:03.900Z,3.30
2023-05-20T23:52:31.586Z,3.13
2023-05-20T23:55:00.147Z,3.53
2023-05-20T23:57:27.989Z,3.10
2023-05-20T23:59:55.811Z,3.30
